Aviation Digital Data Service (ADDS)

Output produced by TAFs form (2301 UTC 25 July 2014)
found at http://aviationweather.gov/adds/tafs/
 
KRIL 252129Z 2521/2618 24009KT P6SM VCSH SCT090 BKN120 
     TEMPO 2521/2523 27022G30KT 
     FM260200 09006KT P6SM VCTS SCT080CB BKN140 
     FM260500 11004KT P6SM FEW100 SCT150 
     FM261600 05003KT P6SM SKC